SBOSBO VRN / LIPX
Speedbird OnlineSpeedbird Online VRN / LIPX

Verona Villafranca Airport
10:10 17.2°C

Location Villafranca, Italy
Latitude: 45.395699
Longitude: 10.8885
Web Airport Website | Wikipedia
Altitude 73 Meter / 239 Feet
Distance 1,043 KM / 648 Miles
from London.
Time Zone UTC +2 hours (Europe/Rome)
Codes IATA: VRN
ICAO: LIPX
Currency £1 equals EUR 1.15
Runways
RunwayLength (m)Surface
043068Asphalt
223068Asphalt
Radio
TypeDescriptionFrequency
APPGARDA APP124.45
APPGARDA APP36.23
GNDGND121.75
INFOPADOVA INFO123.25
TWRTWR118.65
Live ATC
METAR LIPX 060750Z VRB01KT 6000 NSC 17/14 Q1028
TAF TAF LIPX 060500Z 0606/0706 VRB05KT 7000 SCT040 TEMPO 0622/0706 3000 BR
Weather As Of 06 Oct 2022 10:10
Description Clear sky
Wind 2 km/h from North (0°)
Cloud Cover 4%
Precipitation Rain: none, Snow: none
Sunrise 07:20
Sunset 18:48
Lounges Catullo Club Lounge (Temporarily Closed), Departure Terminal
Rotations During the last 90 days there were
63 flights from LGW
63 flights to LGW


© 2017-2022 Speedbird Online